Terminal Aerodrome Forecast
Issued by NWS

Home | Current Version | Previous Version | Text Only | Print | Product List | Glossary On
Versions: 1 2 3 4 5 6 7 8 9 10 11 12 13 14
000
FTAK31 PANC 292321
TAFACD
TAF
PACD 292321Z 3000/3024 14012KT P6SM SCT035 BKN050
     FM301200 15007KT P6SM VCSH BKN025
     FM302000 13016G26KT P6SM BKN030=

USA.gov is the U.S. government's official web portal to all federal, state and local government web resources and services.